sensor_id;sensor_type;location;lat;lon;timestamp;P1;P2;P0
69224;PMS1003;56333;51.306;17.056;2023-03-04T00:00:08;30.50;14.10;
69224;PMS1003;56333;51.306;17.056;2023-03-04T00:01:58;32.00;14.90;
69224;PMS1003;56333;51.306;17.056;2023-03-04T00:03:27;30.30;14.70;
69224;PMS1003;56333;51.306;17.056;2023-03-04T00:04:56;30.30;14.50;
69224;PMS1003;56333;51.306;17.056;2023-03-04T00:06:25;28.70;14.50;
69224;PMS1003;56333;51.306;17.056;2023-03-04T00:07:54;26.50;13.40;
69224;PMS1003;56333;51.306;17.056;2023-03-04T00:09:23;27.10;13.70;
69224;PMS1003;56333;51.306;17.056;2023-03-04T00:10:52;28.70;14.60;
69224;PMS1003;56333;51.306;17.056;2023-03-04T00:12:20;29.90;15.00;
69224;PMS1003;56333;51.306;17.056;2023-03-04T00:13:50;29.50;15.00;
69224;PMS1003;56333;51.306;17.056;2023-03-04T00:15:19;32.00;15.30;
69224;PMS1003;56333;51.306;17.056;2023-03-04T00:16:48;31.80;15.20;
69224;PMS1003;56333;51.306;17.056;2023-03-04T00:18:17;27.90;14.10;
69224;PMS1003;56333;51.306;17.056;2023-03-04T00:19:46;32.10;14.90;
69224;PMS1003;56333;51.306;17.056;2023-03-04T00:21:15;29.60;14.80;
69224;PMS1003;56333;51.306;17.056;2023-03-04T00:22:44;28.00;14.20;
69224;PMS1003;56333;51.306;17.056;2023-03-04T00:24:13;26.70;13.60;
69224;PMS1003;56333;51.306;17.056;2023-03-04T00:25:42;27.50;14.20;
69224;PMS1003;56333;51.306;17.056;2023-03-04T00:27:10;30.20;14.70;
69224;PMS1003;56333;51.306;17.056;2023-03-04T00:28:39;28.40;14.60;
69224;PMS1003;56333;51.306;17.056;2023-03-04T00:30:11;31.60;14.60;
69224;PMS1003;56333;51.306;17.056;2023-03-04T00:31:41;32.40;15.30;
69224;PMS1003;56333;51.306;17.056;2023-03-04T00:33:09;30.70;15.10;
69224;PMS1003;56333;51.306;17.056;2023-03-04T00:34:38;32.50;15.60;
69224;PMS1003;56333;51.306;17.056;2023-03-04T00:36:08;29.70;14.40;
69224;PMS1003;56333;51.306;17.056;2023-03-04T00:37:37;30.30;15.50;
69224;PMS1003;56333;51.306;17.056;2023-03-04T00:39:06;31.00;14.50;
69224;PMS1003;56333;51.306;17.056;2023-03-04T00:40:35;30.10;14.40;
69224;PMS1003;56333;51.306;17.056;2023-03-04T00:42:03;28.10;13.40;
69224;PMS1003;56333;51.306;17.056;2023-03-04T00:43:33;30.70;14.70;
69224;PMS1003;56333;51.306;17.056;2023-03-04T00:45:01;28.10;14.50;
69224;PMS1003;56333;51.306;17.056;2023-03-04T00:46:31;33.70;15.40;
69224;PMS1003;56333;51.306;17.056;2023-03-04T00:48:00;30.20;15.40;
69224;PMS1003;56333;51.306;17.056;2023-03-04T00:49:29;32.40;16.10;
69224;PMS1003;56333;51.306;17.056;2023-03-04T00:50:57;32.40;15.20;
69224;PMS1003;56333;51.306;17.056;2023-03-04T00:52:26;32.40;16.10;
69224;PMS1003;56333;51.306;17.056;2023-03-04T00:53:55;32.20;15.60;
69224;PMS1003;56333;51.306;17.056;2023-03-04T00:55:24;30.80;14.50;
69224;PMS1003;56333;51.306;17.056;2023-03-04T00:56:53;31.60;14.80;
69224;PMS1003;56333;51.306;17.056;2023-03-04T00:58:22;26.90;13.90;
69224;PMS1003;56333;51.306;17.056;2023-03-04T00:59:51;27.20;13.60;
69224;PMS1003;56333;51.306;17.056;2023-03-04T01:01:20;27.90;13.70;
69224;PMS1003;56333;51.306;17.056;2023-03-04T01:02:51;29.10;14.20;
69224;PMS1003;56333;51.306;17.056;2023-03-04T01:04:20;33.30;15.70;
69224;PMS1003;56333;51.306;17.056;2023-03-04T01:05:48;29.80;14.50;
69224;PMS1003;56333;51.306;17.056;2023-03-04T01:07:17;28.40;14.30;
69224;PMS1003;56333;51.306;17.056;2023-03-04T01:08:46;31.30;15.30;
69224;PMS1003;56333;51.306;17.056;2023-03-04T01:10:15;31.70;14.80;
69224;PMS1003;56333;51.306;17.056;2023-03-04T01:11:45;29.50;14.30;
69224;PMS1003;56333;51.306;17.056;2023-03-04T01:13:13;31.20;14.80;
69224;PMS1003;56333;51.306;17.056;2023-03-04T01:14:42;26.50;13.00;
69224;PMS1003;56333;51.306;17.056;2023-03-04T01:16:12;27.10;13.20;
69224;PMS1003;56333;51.306;17.056;2023-03-04T01:17:41;26.80;13.70;
69224;PMS1003;56333;51.306;17.056;2023-03-04T01:19:10;26.70;13.50;
69224;PMS1003;56333;51.306;17.056;2023-03-04T01:20:39;26.20;13.30;
69224;PMS1003;56333;51.306;17.056;2023-03-04T01:22:16;28.70;14.10;
69224;PMS1003;56333;51.306;17.056;2023-03-04T01:23:53;30.00;14.50;
69224;PMS1003;56333;51.306;17.056;2023-03-04T01:25:22;29.70;15.10;
69224;PMS1003;56333;51.306;17.056;2023-03-04T01:26:51;33.30;15.40;
69224;PMS1003;56333;51.306;17.056;2023-03-04T01:28:20;30.40;14.40;
69224;PMS1003;56333;51.306;17.056;2023-03-04T01:29:49;29.70;14.40;
69224;PMS1003;56333;51.306;17.056;2023-03-04T01:31:19;29.80;15.10;
69224;PMS1003;56333;51.306;17.056;2023-03-04T01:32:47;27.20;13.50;
69224;PMS1003;56333;51.306;17.056;2023-03-04T01:34:16;27.90;14.40;
69224;PMS1003;56333;51.306;17.056;2023-03-04T01:35:46;27.90;14.10;
69224;PMS1003;56333;51.306;17.056;2023-03-04T01:37:15;30.80;13.70;
69224;PMS1003;56333;51.306;17.056;2023-03-04T01:38:45;28.30;13.60;
69224;PMS1003;56333;51.306;17.056;2023-03-04T01:40:15;27.30;14.30;
69224;PMS1003;56333;51.306;17.056;2023-03-04T01:41:44;29.60;14.50;
69224;PMS1003;56333;51.306;17.056;2023-03-04T01:43:19;30.00;14.90;
69224;PMS1003;56333;51.306;17.056;2023-03-04T01:44:51;30.30;14.80;
69224;PMS1003;56333;51.306;17.056;2023-03-04T01:46:20;29.50;14.60;
69224;PMS1003;56333;51.306;17.056;2023-03-04T01:47:49;33.90;15.40;
69224;PMS1003;56333;51.306;17.056;2023-03-04T01:49:19;32.30;15.10;
69224;PMS1003;56333;51.306;17.056;2023-03-04T01:50:49;33.30;15.00;
69224;PMS1003;56333;51.306;17.056;2023-03-04T01:52:18;27.70;13.80;
69224;PMS1003;56333;51.306;17.056;2023-03-04T01:53:48;28.80;14.40;
69224;PMS1003;56333;51.306;17.056;2023-03-04T01:55:21;26.70;13.90;
69224;PMS1003;56333;51.306;17.056;2023-03-04T01:56:51;28.40;14.50;
69224;PMS1003;56333;51.306;17.056;2023-03-04T01:58:20;31.40;15.90;
69224;PMS1003;56333;51.306;17.056;2023-03-04T02:00:16;30.90;15.70;
69224;PMS1003;56333;51.306;17.056;2023-03-04T02:01:50;33.30;16.20;
69224;PMS1003;56333;51.306;17.056;2023-03-04T02:03:21;29.00;14.70;
69224;PMS1003;56333;51.306;17.056;2023-03-04T02:04:49;31.80;15.20;
69224;PMS1003;56333;51.306;17.056;2023-03-04T02:06:18;29.10;14.80;
69224;PMS1003;56333;51.306;17.056;2023-03-04T02:07:48;30.70;15.20;
69224;PMS1003;56333;51.306;17.056;2023-03-04T02:09:18;27.70;14.10;
69224;PMS1003;56333;51.306;17.056;2023-03-04T02:10:47;28.20;15.00;
69224;PMS1003;56333;51.306;17.056;2023-03-04T02:12:16;25.90;14.00;
69224;PMS1003;56333;51.306;17.056;2023-03-04T02:13:45;26.20;14.50;
69224;PMS1003;56333;51.306;17.056;2023-03-04T02:15:15;27.10;14.30;
69224;PMS1003;56333;51.306;17.056;2023-03-04T02:16:44;27.90;15.20;
69224;PMS1003;56333;51.306;17.056;2023-03-04T02:18:18;26.10;14.90;
69224;PMS1003;56333;51.306;17.056;2023-03-04T02:19:52;28.60;14.80;
69224;PMS1003;56333;51.306;17.056;2023-03-04T02:21:27;29.20;14.60;
69224;PMS1003;56333;51.306;17.056;2023-03-04T02:23:06;26.00;14.30;
69224;PMS1003;56333;51.306;17.056;2023-03-04T02:24:44;26.30;14.40;
69224;PMS1003;56333;51.306;17.056;2023-03-04T02:26:18;25.10;13.30;
69224;PMS1003;56333;51.306;17.056;2023-03-04T02:27:50;26.50;14.00;
69224;PMS1003;56333;51.306;17.056;2023-03-04T02:29:19;24.90;13.70;
69224;PMS1003;56333;51.306;17.056;2023-03-04T02:30:48;26.20;13.90;
69224;PMS1003;56333;51.306;17.056;2023-03-04T02:32:17;24.00;13.40;
69224;PMS1003;56333;51.306;17.056;2023-03-04T02:33:46;25.20;14.10;
69224;PMS1003;56333;51.306;17.056;2023-03-04T02:35:19;23.30;13.40;
69224;PMS1003;56333;51.306;17.056;2023-03-04T02:36:50;24.70;13.50;
69224;PMS1003;56333;51.306;17.056;2023-03-04T02:38:20;23.00;12.70;
69224;PMS1003;56333;51.306;17.056;2023-03-04T02:39:49;22.70;12.90;
69224;PMS1003;56333;51.306;17.056;2023-03-04T02:41:21;21.30;12.30;
69224;PMS1003;56333;51.306;17.056;2023-03-04T02:42:51;22.20;12.10;
69224;PMS1003;56333;51.306;17.056;2023-03-04T02:44:22;22.60;12.40;
69224;PMS1003;56333;51.306;17.056;2023-03-04T02:45:52;26.00;12.70;
69224;PMS1003;56333;51.306;17.056;2023-03-04T02:47:21;23.50;13.10;
69224;PMS1003;56333;51.306;17.056;2023-03-04T02:48:50;24.10;13.20;
69224;PMS1003;56333;51.306;17.056;2023-03-04T02:50:20;25.90;14.00;
69224;PMS1003;56333;51.306;17.056;2023-03-04T02:51:51;24.00;14.20;
69224;PMS1003;56333;51.306;17.056;2023-03-04T02:53:25;24.00;13.20;
69224;PMS1003;56333;51.306;17.056;2023-03-04T02:54:55;24.40;13.40;
69224;PMS1003;56333;51.306;17.056;2023-03-04T02:56:24;23.90;13.30;
69224;PMS1003;56333;51.306;17.056;2023-03-04T02:57:54;22.90;12.40;
69224;PMS1003;56333;51.306;17.056;2023-03-04T02:59:23;22.60;12.30;
69224;PMS1003;56333;51.306;17.056;2023-03-04T03:00:52;23.20;12.50;
69224;PMS1003;56333;51.306;17.056;2023-03-04T03:02:23;23.00;12.70;
69224;PMS1003;56333;51.306;17.056;2023-03-04T03:03:53;22.50;13.40;
69224;PMS1003;56333;51.306;17.056;2023-03-04T03:05:22;23.20;12.80;
69224;PMS1003;56333;51.306;17.056;2023-03-04T03:06:52;24.70;13.60;
69224;PMS1003;56333;51.306;17.056;2023-03-04T03:08:21;23.90;12.90;
69224;PMS1003;56333;51.306;17.056;2023-03-04T03:09:50;25.70;14.30;
69224;PMS1003;56333;51.306;17.056;2023-03-04T03:11:18;27.50;14.10;
69224;PMS1003;56333;51.306;17.056;2023-03-04T03:12:47;27.30;14.30;
69224;PMS1003;56333;51.306;17.056;2023-03-04T03:14:16;24.90;13.70;
69224;PMS1003;56333;51.306;17.056;2023-03-04T03:15:45;22.70;13.00;
69224;PMS1003;56333;51.306;17.056;2023-03-04T03:17:15;23.90;13.70;
69224;PMS1003;56333;51.306;17.056;2023-03-04T03:18:44;22.60;12.40;
69224;PMS1003;56333;51.306;17.056;2023-03-04T03:20:16;22.30;13.20;
69224;PMS1003;56333;51.306;17.056;2023-03-04T03:21:45;22.20;13.20;
69224;PMS1003;56333;51.306;17.056;2023-03-04T03:23:15;24.00;13.70;
69224;PMS1003;56333;51.306;17.056;2023-03-04T03:24:45;23.70;13.10;
69224;PMS1003;56333;51.306;17.056;2023-03-04T03:26:14;23.70;13.80;
69224;PMS1003;56333;51.306;17.056;2023-03-04T03:27:45;25.80;15.20;
69224;PMS1003;56333;51.306;17.056;2023-03-04T03:29:13;22.50;13.60;
69224;PMS1003;56333;51.306;17.056;2023-03-04T03:30:42;25.10;13.70;
69224;PMS1003;56333;51.306;17.056;2023-03-04T03:32:11;23.60;13.30;
69224;PMS1003;56333;51.306;17.056;2023-03-04T03:33:40;23.10;12.80;
69224;PMS1003;56333;51.306;17.056;2023-03-04T03:35:10;20.70;11.90;
69224;PMS1003;56333;51.306;17.056;2023-03-04T03:36:39;23.40;12.70;
69224;PMS1003;56333;51.306;17.056;2023-03-04T03:38:07;20.10;12.40;
69224;PMS1003;56333;51.306;17.056;2023-03-04T03:39:36;21.00;12.30;
69224;PMS1003;56333;51.306;17.056;2023-03-04T03:41:05;22.10;13.10;
69224;PMS1003;56333;51.306;17.056;2023-03-04T03:42:34;21.30;12.50;
69224;PMS1003;56333;51.306;17.056;2023-03-04T03:44:03;22.70;13.10;
69224;PMS1003;56333;51.306;17.056;2023-03-04T03:45:31;24.70;13.70;
69224;PMS1003;56333;51.306;17.056;2023-03-04T03:47:00;23.30;12.60;
69224;PMS1003;56333;51.306;17.056;2023-03-04T03:48:29;25.20;13.70;
69224;PMS1003;56333;51.306;17.056;2023-03-04T03:49:58;24.30;13.90;
69224;PMS1003;56333;51.306;17.056;2023-03-04T03:51:27;26.40;13.80;
69224;PMS1003;56333;51.306;17.056;2023-03-04T03:52:56;25.00;13.90;
69224;PMS1003;56333;51.306;17.056;2023-03-04T03:54:25;23.90;13.10;
69224;PMS1003;56333;51.306;17.056;2023-03-04T03:55:54;23.90;13.60;
69224;PMS1003;56333;51.306;17.056;2023-03-04T03:57:24;24.50;13.70;
69224;PMS1003;56333;51.306;17.056;2023-03-04T03:58:53;25.00;13.50;
69224;PMS1003;56333;51.306;17.056;2023-03-04T04:00:22;25.30;14.50;
69224;PMS1003;56333;51.306;17.056;2023-03-04T04:01:51;26.40;14.20;
69224;PMS1003;56333;51.306;17.056;2023-03-04T04:03:20;26.70;14.60;
69224;PMS1003;56333;51.306;17.056;2023-03-04T04:04:49;27.50;15.50;
69224;PMS1003;56333;51.306;17.056;2023-03-04T04:06:18;25.60;14.20;
69224;PMS1003;56333;51.306;17.056;2023-03-04T04:07:47;28.40;15.30;
69224;PMS1003;56333;51.306;17.056;2023-03-04T04:09:16;28.70;14.70;
69224;PMS1003;56333;51.306;17.056;2023-03-04T04:10:45;25.20;14.10;
69224;PMS1003;56333;51.306;17.056;2023-03-04T04:12:15;26.30;15.00;
69224;PMS1003;56333;51.306;17.056;2023-03-04T04:13:44;23.70;13.50;
69224;PMS1003;56333;51.306;17.056;2023-03-04T04:15:14;26.20;14.80;
69224;PMS1003;56333;51.306;17.056;2023-03-04T04:16:42;27.10;14.50;
69224;PMS1003;56333;51.306;17.056;2023-03-04T04:18:11;28.00;14.90;
69224;PMS1003;56333;51.306;17.056;2023-03-04T04:19:40;30.30;14.80;
69224;PMS1003;56333;51.306;17.056;2023-03-04T04:21:09;25.10;14.70;
69224;PMS1003;56333;51.306;17.056;2023-03-04T04:22:38;30.00;15.70;
69224;PMS1003;56333;51.306;17.056;2023-03-04T04:24:07;28.50;15.70;
69224;PMS1003;56333;51.306;17.056;2023-03-04T04:25:36;27.20;15.50;
69224;PMS1003;56333;51.306;17.056;2023-03-04T04:27:05;27.30;15.50;
69224;PMS1003;56333;51.306;17.056;2023-03-04T04:28:34;30.60;15.90;
69224;PMS1003;56333;51.306;17.056;2023-03-04T04:30:03;30.60;15.50;
69224;PMS1003;56333;51.306;17.056;2023-03-04T04:31:33;26.80;14.90;
69224;PMS1003;56333;51.306;17.056;2023-03-04T04:33:02;27.90;15.10;
69224;PMS1003;56333;51.306;17.056;2023-03-04T04:34:31;27.70;15.20;
69224;PMS1003;56333;51.306;17.056;2023-03-04T04:36:01;25.80;14.40;
69224;PMS1003;56333;51.306;17.056;2023-03-04T04:37:30;26.30;14.90;
69224;PMS1003;56333;51.306;17.056;2023-03-04T04:39:00;26.60;14.50;
69224;PMS1003;56333;51.306;17.056;2023-03-04T04:40:29;30.00;16.00;
69224;PMS1003;56333;51.306;17.056;2023-03-04T04:41:58;30.20;16.40;
69224;PMS1003;56333;51.306;17.056;2023-03-04T04:43:27;30.40;15.50;
69224;PMS1003;56333;51.306;17.056;2023-03-04T04:44:55;28.10;15.70;
69224;PMS1003;56333;51.306;17.056;2023-03-04T04:46:24;27.00;15.90;
69224;PMS1003;56333;51.306;17.056;2023-03-04T04:47:55;26.50;13.90;
69224;PMS1003;56333;51.306;17.056;2023-03-04T04:49:24;29.00;15.40;
69224;PMS1003;56333;51.306;17.056;2023-03-04T04:50:57;27.20;15.40;
69224;PMS1003;56333;51.306;17.056;2023-03-04T04:52:26;28.40;14.60;
69224;PMS1003;56333;51.306;17.056;2023-03-04T04:53:57;26.60;14.00;
69224;PMS1003;56333;51.306;17.056;2023-03-04T04:55:26;27.60;14.30;
69224;PMS1003;56333;51.306;17.056;2023-03-04T04:56:55;26.90;15.10;
69224;PMS1003;56333;51.306;17.056;2023-03-04T04:58:24;27.20;15.00;
69224;PMS1003;56333;51.306;17.056;2023-03-04T04:59:53;25.00;14.50;
69224;PMS1003;56333;51.306;17.056;2023-03-04T05:01:21;25.50;14.00;
69224;PMS1003;56333;51.306;17.056;2023-03-04T05:02:52;28.30;14.70;
69224;PMS1003;56333;51.306;17.056;2023-03-04T05:04:21;27.40;15.20;
69224;PMS1003;56333;51.306;17.056;2023-03-04T05:05:49;25.90;14.80;
69224;PMS1003;56333;51.306;17.056;2023-03-04T05:07:18;27.30;14.50;
69224;PMS1003;56333;51.306;17.056;2023-03-04T05:08:47;28.00;15.10;
69224;PMS1003;56333;51.306;17.056;2023-03-04T05:10:16;27.30;15.10;
69224;PMS1003;56333;51.306;17.056;2023-03-04T05:11:45;24.80;13.80;
69224;PMS1003;56333;51.306;17.056;2023-03-04T05:13:14;24.30;13.20;
69224;PMS1003;56333;51.306;17.056;2023-03-04T05:14:44;24.60;13.50;
69224;PMS1003;56333;51.306;17.056;2023-03-04T05:16:12;25.90;14.20;
69224;PMS1003;56333;51.306;17.056;2023-03-04T05:17:41;25.50;14.30;
69224;PMS1003;56333;51.306;17.056;2023-03-04T05:19:10;25.90;14.60;
69224;PMS1003;56333;51.306;17.056;2023-03-04T05:20:38;25.00;13.90;
69224;PMS1003;56333;51.306;17.056;2023-03-04T05:22:08;25.70;14.10;
69224;PMS1003;56333;51.306;17.056;2023-03-04T05:23:39;26.90;15.00;
69224;PMS1003;56333;51.306;17.056;2023-03-04T05:25:10;24.60;14.20;
69224;PMS1003;56333;51.306;17.056;2023-03-04T05:26:39;24.50;14.00;
69224;PMS1003;56333;51.306;17.056;2023-03-04T05:28:08;27.70;14.20;
69224;PMS1003;56333;51.306;17.056;2023-03-04T05:29:39;25.80;13.80;
69224;PMS1003;56333;51.306;17.056;2023-03-04T05:31:11;23.60;13.50;
69224;PMS1003;56333;51.306;17.056;2023-03-04T05:32:41;23.60;13.10;
69224;PMS1003;56333;51.306;17.056;2023-03-04T05:34:10;24.30;12.80;
69224;PMS1003;56333;51.306;17.056;2023-03-04T05:35:40;22.80;12.70;
69224;PMS1003;56333;51.306;17.056;2023-03-04T05:37:11;27.00;13.80;
69224;PMS1003;56333;51.306;17.056;2023-03-04T05:38:39;22.70;13.10;
69224;PMS1003;56333;51.306;17.056;2023-03-04T05:40:12;26.20;13.70;
69224;PMS1003;56333;51.306;17.056;2023-03-04T05:41:41;24.50;13.30;
69224;PMS1003;56333;51.306;17.056;2023-03-04T05:43:10;24.20;13.30;
69224;PMS1003;56333;51.306;17.056;2023-03-04T05:44:40;24.60;13.90;
69224;PMS1003;56333;51.306;17.056;2023-03-04T05:46:09;25.80;14.20;
69224;PMS1003;56333;51.306;17.056;2023-03-04T05:47:41;24.80;13.80;
69224;PMS1003;56333;51.306;17.056;2023-03-04T05:49:10;23.90;13.10;
69224;PMS1003;56333;51.306;17.056;2023-03-04T05:50:39;25.70;13.30;
69224;PMS1003;56333;51.306;17.056;2023-03-04T05:52:08;22.10;12.70;
69224;PMS1003;56333;51.306;17.056;2023-03-04T05:53:37;22.20;12.40;
69224;PMS1003;56333;51.306;17.056;2023-03-04T05:55:08;23.10;12.70;
69224;PMS1003;56333;51.306;17.056;2023-03-04T05:56:38;21.70;12.60;
69224;PMS1003;56333;51.306;17.056;2023-03-04T05:58:07;22.90;13.00;
69224;PMS1003;56333;51.306;17.056;2023-03-04T05:59:35;27.00;13.70;
69224;PMS1003;56333;51.306;17.056;2023-03-04T06:01:05;23.30;12.90;
69224;PMS1003;56333;51.306;17.056;2023-03-04T06:02:34;24.10;12.90;
69224;PMS1003;56333;51.306;17.056;2023-03-04T06:04:04;25.00;13.40;
69224;PMS1003;56333;51.306;17.056;2023-03-04T06:05:32;24.40;13.20;
69224;PMS1003;56333;51.306;17.056;2023-03-04T06:07:01;23.10;13.50;
69224;PMS1003;56333;51.306;17.056;2023-03-04T06:08:30;25.40;13.10;
69224;PMS1003;56333;51.306;17.056;2023-03-04T06:09:59;21.90;11.90;
69224;PMS1003;56333;51.306;17.056;2023-03-04T06:11:28;21.00;11.90;
69224;PMS1003;56333;51.306;17.056;2023-03-04T06:12:58;21.80;12.50;
69224;PMS1003;56333;51.306;17.056;2023-03-04T06:14:27;21.80;12.80;
69224;PMS1003;56333;51.306;17.056;2023-03-04T06:16:00;24.10;13.70;
69224;PMS1003;56333;51.306;17.056;2023-03-04T06:17:29;22.50;13.10;
69224;PMS1003;56333;51.306;17.056;2023-03-04T06:18:58;24.30;13.40;
69224;PMS1003;56333;51.306;17.056;2023-03-04T06:20:27;23.80;13.60;
69224;PMS1003;56333;51.306;17.056;2023-03-04T06:21:56;24.60;13.40;
69224;PMS1003;56333;51.306;17.056;2023-03-04T06:23:26;24.50;13.20;
69224;PMS1003;56333;51.306;17.056;2023-03-04T06:24:56;24.50;13.70;
69224;PMS1003;56333;51.306;17.056;2023-03-04T06:26:24;25.30;12.90;
69224;PMS1003;56333;51.306;17.056;2023-03-04T06:27:53;26.60;13.40;
69224;PMS1003;56333;51.306;17.056;2023-03-04T06:29:23;23.80;12.20;
69224;PMS1003;56333;51.306;17.056;2023-03-04T06:30:55;24.80;13.80;
69224;PMS1003;56333;51.306;17.056;2023-03-04T06:32:25;27.60;13.10;
69224;PMS1003;56333;51.306;17.056;2023-03-04T06:33:54;24.80;13.20;
69224;PMS1003;56333;51.306;17.056;2023-03-04T06:35:23;28.80;13.80;
69224;PMS1003;56333;51.306;17.056;2023-03-04T06:36:52;25.20;13.70;
69224;PMS1003;56333;51.306;17.056;2023-03-04T06:38:21;24.10;13.80;
69224;PMS1003;56333;51.306;17.056;2023-03-04T06:39:49;24.40;14.10;
69224;PMS1003;56333;51.306;17.056;2023-03-04T06:41:18;27.30;13.80;
69224;PMS1003;56333;51.306;17.056;2023-03-04T06:42:47;22.10;13.40;
69224;PMS1003;56333;51.306;17.056;2023-03-04T06:44:16;21.90;13.00;
69224;PMS1003;56333;51.306;17.056;2023-03-04T06:45:45;23.10;12.80;
69224;PMS1003;56333;51.306;17.056;2023-03-04T06:47:14;23.50;12.90;
69224;PMS1003;56333;51.306;17.056;2023-03-04T06:48:44;22.40;12.40;
69224;PMS1003;56333;51.306;17.056;2023-03-04T06:50:14;22.10;12.80;
69224;PMS1003;56333;51.306;17.056;2023-03-04T06:51:43;24.20;13.10;
69224;PMS1003;56333;51.306;17.056;2023-03-04T06:53:11;26.00;13.90;
69224;PMS1003;56333;51.306;17.056;2023-03-04T06:54:40;23.80;13.50;
69224;PMS1003;56333;51.306;17.056;2023-03-04T06:56:12;24.90;13.10;
69224;PMS1003;56333;51.306;17.056;2023-03-04T06:57:41;25.30;13.50;
69224;PMS1003;56333;51.306;17.056;2023-03-04T06:59:11;26.20;13.90;
69224;PMS1003;56333;51.306;17.056;2023-03-04T07:00:40;22.40;12.40;
69224;PMS1003;56333;51.306;17.056;2023-03-04T07:02:10;23.80;11.70;
69224;PMS1003;56333;51.306;17.056;2023-03-04T07:03:39;19.00;10.80;
69224;PMS1003;56333;51.306;17.056;2023-03-04T07:05:10;22.80;11.40;
69224;PMS1003;56333;51.306;17.056;2023-03-04T07:06:39;19.70;10.70;
69224;PMS1003;56333;51.306;17.056;2023-03-04T07:08:08;20.70;11.10;
69224;PMS1003;56333;51.306;17.056;2023-03-04T07:09:37;19.90;10.80;
69224;PMS1003;56333;51.306;17.056;2023-03-04T07:11:06;19.20;10.80;
69224;PMS1003;56333;51.306;17.056;2023-03-04T07:12:35;19.90;11.00;
69224;PMS1003;56333;51.306;17.056;2023-03-04T07:14:03;19.60;10.70;
69224;PMS1003;56333;51.306;17.056;2023-03-04T07:15:32;21.10;11.10;
69224;PMS1003;56333;51.306;17.056;2023-03-04T07:17:01;20.00;11.10;
69224;PMS1003;56333;51.306;17.056;2023-03-04T07:18:29;20.50;11.40;
69224;PMS1003;56333;51.306;17.056;2023-03-04T07:19:58;20.90;11.30;
69224;PMS1003;56333;51.306;17.056;2023-03-04T07:21:27;21.00;10.80;
69224;PMS1003;56333;51.306;17.056;2023-03-04T07:22:56;21.10;10.90;
69224;PMS1003;56333;51.306;17.056;2023-03-04T07:24:25;19.50;10.60;
69224;PMS1003;56333;51.306;17.056;2023-03-04T07:25:54;20.30;10.30;
69224;PMS1003;56333;51.306;17.056;2023-03-04T07:27:23;20.70;10.40;
69224;PMS1003;56333;51.306;17.056;2023-03-04T07:28:52;21.00;10.60;
69224;PMS1003;56333;51.306;17.056;2023-03-04T07:30:23;23.00;11.50;
69224;PMS1003;56333;51.306;17.056;2023-03-04T07:31:51;21.20;11.10;
69224;PMS1003;56333;51.306;17.056;2023-03-04T07:33:21;22.40;11.30;
69224;PMS1003;56333;51.306;17.056;2023-03-04T07:34:51;21.10;10.80;
69224;PMS1003;56333;51.306;17.056;2023-03-04T07:36:20;20.70;11.30;
69224;PMS1003;56333;51.306;17.056;2023-03-04T07:37:49;21.80;11.00;
69224;PMS1003;56333;51.306;17.056;2023-03-04T07:39:18;19.60;11.00;
69224;PMS1003;56333;51.306;17.056;2023-03-04T07:40:55;21.00;10.50;
69224;PMS1003;56333;51.306;17.056;2023-03-04T07:42:25;20.60;11.10;
69224;PMS1003;56333;51.306;17.056;2023-03-04T07:43:59;17.60;9.80;
69224;PMS1003;56333;51.306;17.056;2023-03-04T07:45:30;21.10;10.80;
69224;PMS1003;56333;51.306;17.056;2023-03-04T07:47:00;20.10;10.60;
69224;PMS1003;56333;51.306;17.056;2023-03-04T07:48:29;19.90;10.80;
69224;PMS1003;56333;51.306;17.056;2023-03-04T07:49:59;22.80;10.90;
69224;PMS1003;56333;51.306;17.056;2023-03-04T07:51:29;20.00;11.00;
69224;PMS1003;56333;51.306;17.056;2023-03-04T07:54:27;19.10;11.10;
69224;PMS1003;56333;51.306;17.056;2023-03-04T07:55:56;21.30;10.80;
69224;PMS1003;56333;51.306;17.056;2023-03-04T07:57:25;21.00;10.70;
69224;PMS1003;56333;51.306;17.056;2023-03-04T07:58:55;18.70;9.90;
69224;PMS1003;56333;51.306;17.056;2023-03-04T08:00:24;17.90;9.40;
69224;PMS1003;56333;51.306;17.056;2023-03-04T08:01:55;16.90;8.90;
69224;PMS1003;56333;51.306;17.056;2023-03-04T08:03:25;18.50;9.70;
69224;PMS1003;56333;51.306;17.056;2023-03-04T08:04:54;20.10;9.90;
69224;PMS1003;56333;51.306;17.056;2023-03-04T08:06:25;21.10;10.30;
69224;PMS1003;56333;51.306;17.056;2023-03-04T08:07:55;19.50;9.70;
69224;PMS1003;56333;51.306;17.056;2023-03-04T08:09:24;16.60;9.50;
69224;PMS1003;56333;51.306;17.056;2023-03-04T08:10:53;17.80;9.30;
69224;PMS1003;56333;51.306;17.056;2023-03-04T08:12:39;19.10;10.00;
69224;PMS1003;56333;51.306;17.056;2023-03-04T08:14:11;17.40;9.10;
69224;PMS1003;56333;51.306;17.056;2023-03-04T08:15:44;17.00;9.30;
69224;PMS1003;56333;51.306;17.056;2023-03-04T08:17:13;17.20;9.20;
69224;PMS1003;56333;51.306;17.056;2023-03-04T08:18:42;17.30;8.80;
69224;PMS1003;56333;51.306;17.056;2023-03-04T08:20:15;17.20;9.20;
69224;PMS1003;56333;51.306;17.056;2023-03-04T08:21:45;16.90;8.30;
69224;PMS1003;56333;51.306;17.056;2023-03-04T08:23:13;14.00;7.70;
69224;PMS1003;56333;51.306;17.056;2023-03-04T08:24:42;16.50;8.50;
69224;PMS1003;56333;51.306;17.056;2023-03-04T08:26:15;16.90;8.90;
69224;PMS1003;56333;51.306;17.056;2023-03-04T08:27:46;17.30;8.90;
69224;PMS1003;56333;51.306;17.056;2023-03-04T08:29:18;17.40;8.60;
69224;PMS1003;56333;51.306;17.056;2023-03-04T08:30:55;21.50;8.30;
69224;PMS1003;56333;51.306;17.056;2023-03-04T08:32:24;16.20;8.10;
69224;PMS1003;56333;51.306;17.056;2023-03-04T08:33:55;15.90;8.10;
69224;PMS1003;56333;51.306;17.056;2023-03-04T08:35:24;14.30;7.70;
69224;PMS1003;56333;51.306;17.056;2023-03-04T08:36:54;15.30;7.70;
69224;PMS1003;56333;51.306;17.056;2023-03-04T08:38:24;14.50;7.70;
69224;PMS1003;56333;51.306;17.056;2023-03-04T08:39:54;15.70;8.70;
69224;PMS1003;56333;51.306;17.056;2023-03-04T08:41:23;17.40;8.90;
69224;PMS1003;56333;51.306;17.056;2023-03-04T08:42:52;15.00;8.30;
69224;PMS1003;56333;51.306;17.056;2023-03-04T08:44:21;15.00;8.50;
69224;PMS1003;56333;51.306;17.056;2023-03-04T08:45:52;15.80;8.40;
69224;PMS1003;56333;51.306;17.056;2023-03-04T08:47:21;15.10;8.30;
69224;PMS1003;56333;51.306;17.056;2023-03-04T08:48:51;16.40;8.40;
69224;PMS1003;56333;51.306;17.056;2023-03-04T08:50:20;14.60;8.10;
69224;PMS1003;56333;51.306;17.056;2023-03-04T08:51:48;15.40;8.00;
69224;PMS1003;56333;51.306;17.056;2023-03-04T08:53:18;16.50;8.50;
69224;PMS1003;56333;51.306;17.056;2023-03-04T08:54:52;18.80;9.20;